Time;durP1;ratioP1;P1;durP2;ratioP2;P2;SDS_P1;SDS_P2;PMS_P1;PMS_P2;Temp;Humidity;BMP_temperature;BMP_pressure;BME280_temperature;BME280_humidity;BME280_pressure;Samples;Min_cycle;Max_cycle;Signal;HPM_P1;HPM_P2
2021/06/30 00:01:08;;;;;;;26.77;14.07;;;;;;;;;;5060898;28;20060;-71
2021/06/30 00:03:35;;;;;;;24.65;13.32;;;;;;;;;;5067876;28;20068;-72
2021/06/30 00:06:01;;;;;;;22.10;13.23;;;;;;;;;;5067531;28;20116;-72
2021/06/30 00:08:28;;;;;;;23.88;13.80;;;;;;;;;;5067423;28;20056;-71
2021/06/30 00:10:55;;;;;;;23.77;14.88;;;;;;;;;;5067782;28;20120;-71
2021/06/30 00:13:21;;;;;;;25.02;14.25;;;;;;;;;;5063154;28;20483;-71
2021/06/30 00:15:48;;;;;;;27.40;14.70;;;;;;;;;;5057651;28;20044;-71
2021/06/30 00:18:14;;;;;;;27.35;13.70;;;;;;;;;;5056819;28;20036;-71
2021/06/30 00:20:40;;;;;;;24.65;13.70;;;;;;;;;;5061617;28;20040;-71
2021/06/30 00:23:07;;;;;;;25.67;13.95;;;;;;;;;;5045999;28;20040;-71
2021/06/30 00:25:33;;;;;;;22.55;13.15;;;;;;;;;;5047323;28;20219;-71
2021/06/30 00:27:59;;;;;;;20.30;12.57;;;;;;;;;;5066370;28;20043;-71
2021/06/30 00:30:26;;;;;;;26.63;13.35;;;;;;;;;;5067790;28;20045;-71
2021/06/30 00:32:52;;;;;;;25.95;13.85;;;;;;;;;;5067191;28;20059;-71
2021/06/30 00:35:18;;;;;;;23.85;13.13;;;;;;;;;;5067656;28;20142;-71
2021/06/30 00:37:44;;;;;;;20.25;13.52;;;;;;;;;;5068078;28;20047;-71
2021/06/30 00:40:11;;;;;;;27.77;13.05;;;;;;;;;;5068153;28;20047;-71
2021/06/30 00:42:37;;;;;;;21.52;12.10;;;;;;;;;;5065079;28;20090;-72
2021/06/30 00:45:05;;;;;;;25.20;12.18;;;;;;;;;;5063156;28;20040;-71
2021/06/30 00:47:32;;;;;;;26.27;13.23;;;;;;;;;;5050000;28;20053;-71
2021/06/30 00:49:58;;;;;;;22.25;12.10;;;;;;;;;;5045495;28;20109;-71
2021/06/30 00:52:24;;;;;;;20.77;12.40;;;;;;;;;;5046684;28;20045;-71
2021/06/30 00:54:50;;;;;;;23.35;12.65;;;;;;;;;;5046722;28;20053;-71
2021/06/30 00:57:18;;;;;;;25.10;13.15;;;;;;;;;;5046934;28;20032;-71
2021/06/30 00:59:44;;;;;;;23.58;12.27;;;;;;;;;;5046717;28;20053;-71
2021/06/30 01:02:11;;;;;;;22.25;12.57;;;;;;;;;;5055277;28;20147;-71
2021/06/30 01:04:37;;;;;;;30.48;12.27;;;;;;;;;;5048581;28;20048;-72
2021/06/30 01:07:03;;;;;;;24.80;12.15;;;;;;;;;;5050517;28;20067;-71
2021/06/30 01:09:31;;;;;;;18.70;11.60;;;;;;;;;;5034965;28;20037;-71
2021/06/30 01:11:58;;;;;;;29.27;12.18;;;;;;;;;;5045190;28;20079;-71
2021/06/30 01:14:25;;;;;;;25.55;12.32;;;;;;;;;;5053470;28;20115;-71
2021/06/30 01:16:52;;;;;;;21.08;11.85;;;;;;;;;;5050432;28;20093;-72
2021/06/30 01:19:19;;;;;;;27.30;12.15;;;;;;;;;;5049515;28;20072;-72
2021/06/30 01:21:45;;;;;;;18.95;11.98;;;;;;;;;;5043632;28;20049;-71
2021/06/30 01:24:12;;;;;;;18.17;10.45;;;;;;;;;;5044909;28;20517;-71
2021/06/30 01:26:38;;;;;;;19.25;11.38;;;;;;;;;;5046165;28;20111;-71
2021/06/30 01:29:04;;;;;;;23.95;10.98;;;;;;;;;;5045558;28;20102;-72
2021/06/30 01:31:35;;;;;;;27.02;11.90;;;;;;;;;;5045595;28;20033;-71
2021/06/30 01:34:01;;;;;;;25.15;12.48;;;;;;;;;;5048428;28;20033;-71
2021/06/30 01:36:28;;;;;;;35.58;14.73;;;;;;;;;;5050768;28;20089;-72
2021/06/30 01:38:55;;;;;;;28.70;13.40;;;;;;;;;;5046535;28;20459;-71
2021/06/30 01:41:21;;;;;;;31.90;15.20;;;;;;;;;;5049076;28;20621;-71
2021/06/30 01:43:49;;;;;;;30.33;13.27;;;;;;;;;;5060588;28;20040;-71
2021/06/30 01:46:15;;;;;;;35.17;14.77;;;;;;;;;;5050859;28;20053;-72
2021/06/30 01:48:46;;;;;;;24.42;13.23;;;;;;;;;;5052115;28;20059;-71
2021/06/30 01:51:13;;;;;;;25.60;14.25;;;;;;;;;;5046702;28;20408;-72
2021/06/30 01:53:39;;;;;;;33.50;15.30;;;;;;;;;;5033130;28;20053;-71
2021/06/30 01:56:05;;;;;;;26.65;14.43;;;;;;;;;;5052493;28;20088;-71
2021/06/30 01:58:31;;;;;;;34.20;14.70;;;;;;;;;;5054725;28;20037;-71
2021/06/30 02:00:58;;;;;;;25.55;15.13;;;;;;;;;;5055029;28;20041;-72
2021/06/30 02:03:24;;;;;;;28.02;14.13;;;;;;;;;;5050309;28;20036;-71
2021/06/30 02:05:50;;;;;;;28.45;15.32;;;;;;;;;;5048625;28;20036;-72
2021/06/30 02:08:17;;;;;;;28.33;13.80;;;;;;;;;;5051747;28;20128;-72
2021/06/30 02:10:44;;;;;;;29.02;14.85;;;;;;;;;;5036298;28;20221;-71
2021/06/30 02:13:11;;;;;;;27.95;14.32;;;;;;;;;;5046262;28;20403;-71
2021/06/30 02:15:44;;;;;;;25.02;12.40;;;;;;;;;;5046920;28;20108;-71
2021/06/30 02:18:13;;;;;;;24.33;12.25;;;;;;;;;;5047684;28;20048;-71
2021/06/30 02:20:40;;;;;;;27.60;14.02;;;;;;;;;;5045815;28;20041;-71
2021/06/30 02:23:06;;;;;;;23.83;13.02;;;;;;;;;;5055297;28;20120;-71
2021/06/30 02:25:32;;;;;;;35.70;14.18;;;;;;;;;;5042411;28;20082;-71
2021/06/30 02:27:59;;;;;;;24.23;13.27;;;;;;;;;;5044730;28;20599;-72
2021/06/30 02:30:28;;;;;;;25.30;13.07;;;;;;;;;;5049334;28;20056;-71
2021/06/30 02:32:56;;;;;;;24.45;12.65;;;;;;;;;;5047372;28;20032;-71
2021/06/30 02:35:23;;;;;;;27.10;12.82;;;;;;;;;;5053262;28;20044;-71
2021/06/30 02:37:50;;;;;;;24.55;12.40;;;;;;;;;;5050230;28;20033;-71
2021/06/30 02:40:17;;;;;;;31.85;13.45;;;;;;;;;;5055629;28;20049;-71
2021/06/30 02:42:44;;;;;;;23.60;13.90;;;;;;;;;;5051821;28;20073;-71
2021/06/30 02:45:11;;;;;;;31.38;14.85;;;;;;;;;;5047457;28;20080;-71
2021/06/30 02:47:38;;;;;;;24.30;12.57;;;;;;;;;;5059502;28;20067;-71
2021/06/30 02:50:05;;;;;;;30.05;14.65;;;;;;;;;;5063998;28;20040;-72
2021/06/30 02:52:31;;;;;;;28.95;14.55;;;;;;;;;;5046790;28;20091;-71
2021/06/30 02:54:58;;;;;;;20.88;13.77;;;;;;;;;;5065065;28;20447;-71
2021/06/30 02:57:24;;;;;;;28.70;14.10;;;;;;;;;;5064364;28;21452;-71
2021/06/30 02:59:50;;;;;;;29.27;14.57;;;;;;;;;;5061558;28;20048;-71
2021/06/30 03:02:16;;;;;;;24.42;13.73;;;;;;;;;;5046057;28;20104;-71
2021/06/30 03:04:42;;;;;;;29.58;13.98;;;;;;;;;;5064854;28;20062;-71
2021/06/30 03:07:09;;;;;;;23.60;14.40;;;;;;;;;;5064925;28;20044;-71
2021/06/30 03:09:35;;;;;;;27.70;13.68;;;;;;;;;;5064378;28;20150;-71
2021/06/30 03:12:02;;;;;;;26.23;15.00;;;;;;;;;;5060791;28;20048;-71
2021/06/30 03:14:29;;;;;;;29.73;14.52;;;;;;;;;;5062186;28;20052;-71
2021/06/30 03:16:56;;;;;;;26.55;13.68;;;;;;;;;;5062961;28;20139;-71
2021/06/30 03:19:22;;;;;;;37.30;14.98;;;;;;;;;;5060597;28;20067;-71
2021/06/30 03:21:48;;;;;;;27.85;13.73;;;;;;;;;;5062205;28;20056;-71
2021/06/30 03:24:14;;;;;;;27.20;13.90;;;;;;;;;;5064179;28;20139;-71
2021/06/30 03:26:41;;;;;;;36.47;14.65;;;;;;;;;;5063698;28;20360;-71
2021/06/30 03:29:07;;;;;;;30.33;13.48;;;;;;;;;;5064759;28;20098;-71
2021/06/30 03:31:34;;;;;;;23.25;13.60;;;;;;;;;;5065488;28;20045;-71
2021/06/30 03:34:00;;;;;;;31.50;13.77;;;;;;;;;;5067474;28;20032;-71
2021/06/30 03:36:27;;;;;;;26.70;14.10;;;;;;;;;;5064147;28;20053;-71
2021/06/30 03:38:53;;;;;;;19.17;12.73;;;;;;;;;;5050686;28;20048;-71
2021/06/30 03:41:20;;;;;;;29.20;12.65;;;;;;;;;;5066185;28;20116;-71
2021/06/30 03:43:46;;;;;;;27.25;13.77;;;;;;;;;;5049059;28;20063;-71
2021/06/30 03:46:12;;;;;;;33.58;15.25;;;;;;;;;;5065505;28;20128;-71
2021/06/30 03:48:39;;;;;;;28.27;12.98;;;;;;;;;;5062857;28;20098;-71
2021/06/30 03:51:05;;;;;;;25.55;13.40;;;;;;;;;;5061764;28;20037;-71
2021/06/30 03:53:31;;;;;;;23.48;12.95;;;;;;;;;;5067539;28;20114;-71
2021/06/30 03:55:58;;;;;;;25.58;13.52;;;;;;;;;;5065820;28;20068;-71
2021/06/30 03:58:24;;;;;;;25.42;13.52;;;;;;;;;;5067149;28;20037;-71
2021/06/30 04:00:50;;;;;;;21.67;13.20;;;;;;;;;;5059626;28;20033;-71
2021/06/30 04:03:19;;;;;;;25.30;13.68;;;;;;;;;;5061511;28;20048;-71
2021/06/30 04:05:45;;;;;;;26.45;14.65;;;;;;;;;;5059354;28;20064;-71
2021/06/30 04:08:12;;;;;;;25.60;15.05;;;;;;;;;;5059802;28;20045;-72
2021/06/30 04:10:39;;;;;;;24.08;13.77;;;;;;;;;;5061336;28;20044;-72
2021/06/30 04:13:05;;;;;;;27.60;14.18;;;;;;;;;;5061935;28;20480;-71
2021/06/30 04:15:32;;;;;;;24.13;15.05;;;;;;;;;;5066354;28;20408;-71
2021/06/30 04:18:00;;;;;;;30.60;15.25;;;;;;;;;;5067814;28;20081;-71
2021/06/30 04:20:27;;;;;;;29.02;14.65;;;;;;;;;;5062254;28;20058;-71
2021/06/30 04:22:53;;;;;;;28.20;14.18;;;;;;;;;;5059354;28;20106;-71
2021/06/30 04:25:19;;;;;;;28.95;14.68;;;;;;;;;;5062153;28;20048;-71
2021/06/30 04:27:45;;;;;;;29.38;14.38;;;;;;;;;;5066281;28;20186;-71
2021/06/30 04:30:13;;;;;;;32.75;15.38;;;;;;;;;;5067490;28;20037;-72
2021/06/30 04:32:39;;;;;;;27.98;15.65;;;;;;;;;;5065750;28;20048;-72
2021/06/30 04:35:06;;;;;;;28.88;15.27;;;;;;;;;;5060291;28;20040;-72
2021/06/30 04:37:32;;;;;;;29.98;14.20;;;;;;;;;;5062901;28;20100;-71
2021/06/30 04:39:59;;;;;;;29.75;14.52;;;;;;;;;;5062692;28;20087;-71
2021/06/30 04:42:25;;;;;;;34.22;15.43;;;;;;;;;;5061393;28;20036;-70
2021/06/30 04:44:51;;;;;;;32.13;14.50;;;;;;;;;;5061181;28;20131;-71
2021/06/30 04:47:18;;;;;;;24.63;15.23;;;;;;;;;;5056915;28;20334;-71
2021/06/30 04:49:44;;;;;;;25.48;16.38;;;;;;;;;;5062127;28;20472;-72
2021/06/30 04:52:10;;;;;;;29.15;15.40;;;;;;;;;;5062736;28;20036;-71
2021/06/30 04:54:36;;;;;;;28.30;15.18;;;;;;;;;;5066374;28;20468;-71
2021/06/30 04:57:03;;;;;;;37.33;16.83;;;;;;;;;;5061646;28;20045;-77
2021/06/30 04:59:29;;;;;;;30.90;15.93;;;;;;;;;;5058012;28;20476;-71
2021/06/30 05:01:55;;;;;;;31.13;16.00;;;;;;;;;;5061528;28;20728;-71
2021/06/30 05:04:22;;;;;;;30.05;15.07;;;;;;;;;;5065716;28;20139;-70
2021/06/30 05:06:48;;;;;;;24.92;13.95;;;;;;;;;;5066392;28;20036;-71
2021/06/30 05:09:14;;;;;;;25.92;14.10;;;;;;;;;;5061248;28;20045;-71
2021/06/30 05:11:41;;;;;;;31.10;15.88;;;;;;;;;;5062561;28;20080;-71
2021/06/30 05:14:07;;;;;;;34.75;14.50;;;;;;;;;;5057979;28;20045;-71
2021/06/30 05:16:34;;;;;;;27.08;12.63;;;;;;;;;;5058175;28;20114;-71
2021/06/30 05:19:00;;;;;;;27.42;13.60;;;;;;;;;;5063031;28;20037;-71
2021/06/30 05:21:27;;;;;;;26.80;12.32;;;;;;;;;;5060268;28;20052;-71
2021/06/30 05:23:53;;;;;;;26.95;11.95;;;;;;;;;;5060059;28;20060;-71
2021/06/30 05:26:19;;;;;;;29.70;12.00;;;;;;;;;;5062576;28;20117;-71
2021/06/30 05:28:45;;;;;;;23.10;10.82;;;;;;;;;;5040316;28;20032;-71
2021/06/30 05:31:12;;;;;;;23.77;11.43;;;;;;;;;;5058726;28;20067;-71
2021/06/30 05:33:38;;;;;;;23.55;11.50;;;;;;;;;;5047784;28;20083;-72
2021/06/30 05:36:04;;;;;;;27.52;12.45;;;;;;;;;;5057747;28;20127;-71
2021/06/30 05:38:31;;;;;;;25.80;11.80;;;;;;;;;;5068188;28;20141;-71
2021/06/30 05:40:57;;;;;;;28.27;12.18;;;;;;;;;;5057432;28;20045;-71
2021/06/30 05:43:23;;;;;;;36.05;11.52;;;;;;;;;;5067393;28;20044;-71
2021/06/30 05:45:49;;;;;;;30.23;11.52;;;;;;;;;;5064142;28;20044;-71
2021/06/30 05:48:16;;;;;;;28.55;11.43;;;;;;;;;;5052463;28;20088;-71
2021/06/30 05:50:42;;;;;;;27.60;11.88;;;;;;;;;;5069573;28;20520;-71
2021/06/30 05:53:08;;;;;;;30.75;12.57;;;;;;;;;;5070025;28;20083;-71
2021/06/30 05:55:34;;;;;;;28.35;11.73;;;;;;;;;;5070401;28;20089;-71
2021/06/30 05:58:01;;;;;;;30.08;12.05;;;;;;;;;;5060114;28;20080;-71
2021/06/30 06:00:27;;;;;;;40.33;12.93;;;;;;;;;;5052648;28;20081;-71
2021/06/30 06:02:53;;;;;;;30.60;12.32;;;;;;;;;;5051849;28;20162;-71
2021/06/30 06:05:19;;;;;;;24.50;12.15;;;;;;;;;;5065290;28;20053;-71
2021/06/30 06:07:45;;;;;;;26.52;11.95;;;;;;;;;;5068590;28;20041;-71
2021/06/30 06:10:12;;;;;;;32.33;11.88;;;;;;;;;;5049561;28;20068;-71
2021/06/30 06:12:38;;;;;;;20.67;10.32;;;;;;;;;;5069187;28;20455;-71
2021/06/30 06:15:06;;;;;;;24.48;10.45;;;;;;;;;;5067654;28;20043;-71
2021/06/30 06:17:33;;;;;;;24.92;10.65;;;;;;;;;;5066655;28;20045;-71
2021/06/30 06:19:59;;;;;;;34.15;12.00;;;;;;;;;;5067200;28;20523;-71
2021/06/30 06:22:25;;;;;;;21.67;9.80;;;;;;;;;;5065748;28;20052;-71
2021/06/30 06:24:51;;;;;;;23.90;9.98;;;;;;;;;;5068858;28;20070;-72
2021/06/30 06:27:17;;;;;;;18.95;8.85;;;;;;;;;;5065501;28;20127;-71
2021/06/30 06:29:48;;;;;;;26.05;9.98;;;;;;;;;;5068266;28;20103;-71
2021/06/30 06:32:14;;;;;;;21.75;7.60;;;;;;;;;;5065484;28;20119;-71
2021/06/30 06:34:40;;;;;;;20.35;7.68;;;;;;;;;;5067555;28;20120;-71
2021/06/30 06:37:11;;;;;;;19.67;7.85;;;;;;;;;;5067615;28;20050;-71
2021/06/30 06:39:38;;;;;;;29.27;10.18;;;;;;;;;;5068854;28;20545;-71
2021/06/30 06:42:06;;;;;;;19.92;8.23;;;;;;;;;;5069761;28;20045;-71
2021/06/30 06:44:34;;;;;;;29.35;8.82;;;;;;;;;;5069786;28;20105;-71
2021/06/30 06:47:00;;;;;;;20.38;7.70;;;;;;;;;;5068656;28;20048;-71
2021/06/30 06:49:26;;;;;;;18.83;7.55;;;;;;;;;;5060613;28;20090;-71
2021/06/30 06:51:53;;;;;;;21.30;8.23;;;;;;;;;;5053187;28;20037;-71
2021/06/30 06:54:19;;;;;;;19.20;7.38;;;;;;;;;;5060251;28;20507;-71
2021/06/30 06:56:45;;;;;;;17.08;7.25;;;;;;;;;;5060581;28;20044;-71
2021/06/30 06:59:11;;;;;;;14.98;6.97;;;;;;;;;;5067697;28;20090;-72
2021/06/30 07:01:38;;;;;;;24.05;7.65;;;;;;;;;;5061510;28;20492;-72
2021/06/30 07:04:04;;;;;;;32.33;7.70;;;;;;;;;;5060049;28;20049;-72
2021/06/30 07:06:30;;;;;;;18.92;7.28;;;;;;;;;;5066107;28;20471;-71
2021/06/30 07:08:56;;;;;;;35.85;9.63;;;;;;;;;;5061234;28;20041;-72
2021/06/30 07:11:23;;;;;;;21.20;8.07;;;;;;;;;;5049885;28;20127;-74
2021/06/30 07:13:49;;;;;;;20.88;7.32;;;;;;;;;;5063751;28;20036;-72
2021/06/30 07:16:15;;;;;;;17.02;7.88;;;;;;;;;;5065373;28;20052;-72
2021/06/30 07:18:42;;;;;;;16.75;6.47;;;;;;;;;;5065463;28;20537;-71
2021/06/30 07:21:09;;;;;;;16.08;7.63;;;;;;;;;;5063746;28;20472;-71
2021/06/30 07:23:36;;;;;;;21.08;7.03;;;;;;;;;;5067219;28;20045;-71
2021/06/30 07:26:03;;;;;;;22.73;7.97;;;;;;;;;;5062399;28;20377;-71
2021/06/30 07:28:29;;;;;;;22.90;7.85;;;;;;;;;;5066998;28;20063;-70
2021/06/30 07:30:55;;;;;;;18.58;7.80;;;;;;;;;;5062641;28;20036;-71
2021/06/30 07:33:21;;;;;;;23.80;8.80;;;;;;;;;;5066699;28;20428;-71
2021/06/30 07:35:48;;;;;;;23.02;8.52;;;;;;;;;;5063815;28;20105;-71
2021/06/30 07:38:14;;;;;;;24.80;8.43;;;;;;;;;;5071976;28;20047;-71
2021/06/30 07:40:41;;;;;;;23.85;8.65;;;;;;;;;;5073171;28;20048;-71
2021/06/30 07:43:07;;;;;;;17.85;8.70;;;;;;;;;;5071967;28;20421;-70
2021/06/30 07:45:33;;;;;;;16.42;8.00;;;;;;;;;;5072940;28;20143;-71
2021/06/30 07:48:00;;;;;;;24.05;8.75;;;;;;;;;;5072375;28;20049;-71
2021/06/30 07:50:26;;;;;;;22.13;8.45;;;;;;;;;;5072043;28;20044;-70
2021/06/30 07:52:52;;;;;;;20.02;8.73;;;;;;;;;;5072977;28;20045;-71
2021/06/30 07:55:20;;;;;;;20.00;8.10;;;;;;;;;;5072718;28;20131;-70
2021/06/30 07:57:46;;;;;;;21.10;8.10;;;;;;;;;;5072317;28;20064;-70
2021/06/30 08:00:12;;;;;;;27.00;9.52;;;;;;;;;;5072466;28;20372;-70
2021/06/30 08:02:39;;;;;;;22.23;8.90;;;;;;;;;;5072558;28;20073;-70
2021/06/30 08:05:07;;;;;;;20.83;8.27;;;;;;;;;;5062779;28;20045;-70
2021/06/30 08:07:34;;;;;;;23.35;9.32;;;;;;;;;;5066694;28;20543;-70
2021/06/30 08:10:00;;;;;;;19.45;8.45;;;;;;;;;;5071686;28;20080;-70
2021/06/30 08:12:27;;;;;;;18.70;8.88;;;;;;;;;;5061446;28;20052;-70
2021/06/30 08:14:53;;;;;;;18.67;6.60;;;;;;;;;;5066432;28;20223;-70
2021/06/30 08:17:20;;;;;;;11.80;6.20;;;;;;;;;;5061513;28;20032;-70
2021/06/30 08:19:46;;;;;;;16.90;6.70;;;;;;;;;;5065566;28;20036;-70
2021/06/30 08:22:13;;;;;;;17.90;7.72;;;;;;;;;;5063218;28;20048;-70
2021/06/30 08:24:40;;;;;;;17.48;7.97;;;;;;;;;;5063350;28;20449;-70
2021/06/30 08:27:08;;;;;;;20.40;9.15;;;;;;;;;;5065029;28;20081;-70
2021/06/30 08:29:34;;;;;;;18.10;8.85;;;;;;;;;;5063130;28;20052;-70
2021/06/30 08:32:00;;;;;;;19.00;7.57;;;;;;;;;;5066847;28;20037;-70
2021/06/30 08:34:27;;;;;;;18.73;8.85;;;;;;;;;;5048164;28;20414;-70
2021/06/30 08:36:59;;;;;;;18.23;8.70;;;;;;;;;;5071837;28;20097;-71
2021/06/30 08:39:25;;;;;;;19.45;8.70;;;;;;;;;;5070844;28;20534;-70
2021/06/30 08:41:52;;;;;;;23.30;9.40;;;;;;;;;;5071584;28;20484;-70
2021/06/30 08:44:18;;;;;;;23.73;9.18;;;;;;;;;;5071835;28;20093;-70
2021/06/30 08:46:44;;;;;;;19.92;8.10;;;;;;;;;;5070682;28;20113;-70
2021/06/30 08:49:11;;;;;;;19.50;9.68;;;;;;;;;;5071613;28;20044;-70
2021/06/30 08:51:38;;;;;;;22.33;9.05;;;;;;;;;;5071299;28;20063;-70
2021/06/30 08:54:07;;;;;;;17.75;8.80;;;;;;;;;;5070657;28;20507;-70
2021/06/30 08:56:34;;;;;;;23.58;8.38;;;;;;;;;;5071242;28;20048;-70
2021/06/30 08:59:00;;;;;;;14.95;8.45;;;;;;;;;;5071402;28;20124;-70
2021/06/30 09:01:27;;;;;;;24.23;8.52;;;;;;;;;;5052459;28;20044;-70
2021/06/30 09:03:56;;;;;;;16.45;7.80;;;;;;;;;;5071612;28;20045;-70
2021/06/30 09:06:23;;;;;;;19.95;8.73;;;;;;;;;;5071400;28;20153;-70
2021/06/30 09:08:49;;;;;;;19.13;8.38;;;;;;;;;;5070205;28;20471;-70
2021/06/30 09:11:18;;;;;;;17.65;8.30;;;;;;;;;;5070969;28;20133;-70
2021/06/30 09:13:44;;;;;;;18.65;8.20;;;;;;;;;;5070427;28;20040;-71
2021/06/30 09:16:11;;;;;;;16.33;8.25;;;;;;;;;;5071288;28;20071;-71
2021/06/30 09:18:39;;;;;;;22.35;7.68;;;;;;;;;;5070961;28;20143;-71
2021/06/30 09:21:18;;;;;;;20.65;8.93;;;;;;;;;;5070175;28;20044;-70
2021/06/30 09:24:02;;;;;;;18.67;7.95;;;;;;;;;;5070770;28;20190;-71
2021/06/30 09:26:31;;;;;;;22.50;8.18;;;;;;;;;;5070785;28;20048;-72
2021/06/30 09:29:09;;;;;;;21.95;8.07;;;;;;;;;;5069633;28;20040;-72
2021/06/30 09:31:37;;;;;;;18.75;7.25;;;;;;;;;;5070944;28;20047;-72
2021/06/30 09:34:04;;;;;;;18.25;7.80;;;;;;;;;;5070499;28;20044;-72
2021/06/30 09:36:33;;;;;;;17.52;8.15;;;;;;;;;;5069911;28;20055;-78
2021/06/30 09:39:12;;;;;;;25.10;8.68;;;;;;;;;;5070737;28;20516;-72
2021/06/30 09:41:41;;;;;;;15.13;8.32;;;;;;;;;;5070676;28;20053;-71
2021/06/30 09:44:11;;;;;;;19.08;7.30;;;;;;;;;;5069894;28;20047;-71
2021/06/30 09:46:37;;;;;;;19.73;7.60;;;;;;;;;;5070310;28;20087;-72
2021/06/30 09:49:06;;;;;;;18.23;7.25;;;;;;;;;;5070048;28;20048;-72
2021/06/30 09:51:32;;;;;;;20.25;7.97;;;;;;;;;;5070573;28;20078;-72
2021/06/30 09:54:07;;;;;;;22.10;8.48;;;;;;;;;;5070728;28;20114;-71
2021/06/30 09:56:35;;;;;;;21.42;7.70;;;;;;;;;;5069741;28;20098;-72
2021/06/30 09:59:11;;;;;;;17.17;8.07;;;;;;;;;;5070541;28;20083;-71
2021/06/30 10:01:37;;;;;;;25.85;9.48;;;;;;;;;;5052299;28;20480;-72
2021/06/30 10:04:04;;;;;;;19.50;8.63;;;;;;;;;;5069738;28;20060;-72
2021/06/30 10:06:32;;;;;;;20.73;9.25;;;;;;;;;;5070605;28;20066;-72
2021/06/30 10:09:00;;;;;;;17.95;7.47;;;;;;;;;;5070480;28;20047;-72
2021/06/30 10:11:27;;;;;;;25.77;9.10;;;;;;;;;;5065934;28;20048;-72
2021/06/30 10:13:54;;;;;;;19.25;8.32;;;;;;;;;;5049749;28;20046;-72
2021/06/30 10:16:21;;;;;;;23.77;9.38;;;;;;;;;;5054889;28;20056;-73
2021/06/30 10:18:57;;;;;;;19.38;8.45;;;;;;;;;;5061436;28;20048;-72
2021/06/30 10:21:26;;;;;;;23.00;8.43;;;;;;;;;;5063597;28;20499;-73
2021/06/30 10:23:52;;;;;;;18.15;8.50;;;;;;;;;;5064572;28;20044;-74
2021/06/30 10:26:21;;;;;;;15.45;7.20;;;;;;;;;;5059660;28;20049;-74
2021/06/30 10:28:52;;;;;;;15.02;5.82;;;;;;;;;;5058597;28;20051;-73
2021/06/30 10:31:19;;;;;;;10.48;5.07;;;;;;;;;;5064999;28;20078;-73
2021/06/30 10:33:55;;;;;;;12.98;5.43;;;;;;;;;;5041234;28;20099;-73
2021/06/30 10:36:42;;;;;;;14.30;7.57;;;;;;;;;;5063366;28;20115;-73
2021/06/30 10:39:08;;;;;;;19.05;7.82;;;;;;;;;;5067859;28;20040;-73
2021/06/30 10:41:37;;;;;;;19.45;9.25;;;;;;;;;;5044739;28;20439;-73
2021/06/30 10:44:08;;;;;;;16.45;9.20;;;;;;;;;;5050826;28;20045;-73
2021/06/30 10:46:35;;;;;;;15.23;8.63;;;;;;;;;;5062566;28;20219;-74
2021/06/30 10:49:18;;;;;;;16.80;8.65;;;;;;;;;;5069118;28;20060;-73
2021/06/30 10:51:45;;;;;;;15.63;9.07;;;;;;;;;;5069675;28;20041;-73
2021/06/30 10:54:38;;;;;;;19.48;9.40;;;;;;;;;;5071555;28;20036;-73
2021/06/30 10:57:24;;;;;;;18.50;10.02;;;;;;;;;;5064773;28;20068;-74
2021/06/30 11:00:01;;;;;;;18.10;9.68;;;;;;;;;;5065372;28;20040;-74
2021/06/30 11:02:31;;;;;;;24.42;11.13;;;;;;;;;;5070235;28;20040;-74
2021/06/30 11:04:58;;;;;;;17.98;11.10;;;;;;;;;;5067472;28;20392;-74
2021/06/30 11:07:31;;;;;;;21.58;12.13;;;;;;;;;;5057875;28;20036;-74
2021/06/30 11:09:58;;;;;;;29.95;13.00;;;;;;;;;;5051236;28;20048;-74
2021/06/30 11:12:49;;;;;;;25.38;11.75;;;;;;;;;;5056638;28;20106;-74
2021/06/30 11:15:40;;;;;;;25.33;12.70;;;;;;;;;;5064961;28;20043;-74
2021/06/30 11:18:12;;;;;;;24.05;11.90;;;;;;;;;;5065465;28;20043;-74
2021/06/30 11:20:44;;;;;;;20.80;11.18;;;;;;;;;;5066510;28;20161;-74
2021/06/30 11:23:21;;;;;;;21.38;10.43;;;;;;;;;;5063530;28;20072;-74
2021/06/30 11:25:48;;;;;;;27.40;11.88;;;;;;;;;;5062212;28;20091;-74
2021/06/30 11:28:36;;;;;;;30.30;12.55;;;;;;;;;;5062112;28;20040;-74
2021/06/30 11:31:35;;;;;;;23.17;10.75;;;;;;;;;;5068411;28;20109;-74
2021/06/30 11:34:03;;;;;;;11.50;6.57;;;;;;;;;;5068939;28;20148;-74
2021/06/30 11:36:36;;;;;;;11.00;5.65;;;;;;;;;;5063503;28;20051;-74
2021/06/30 11:39:07;;;;;;;10.32;6.22;;;;;;;;;;5061685;28;20059;-74
2021/06/30 11:41:48;;;;;;;11.90;6.35;;;;;;;;;;5071129;28;20067;-74
2021/06/30 11:44:15;;;;;;;10.93;6.38;;;;;;;;;;5073040;28;20048;-74
2021/06/30 11:46:42;;;;;;;11.93;7.63;;;;;;;;;;5071003;28;20052;-74
2021/06/30 11:49:10;;;;;;;13.18;7.50;;;;;;;;;;5067761;28;20041;-74
2021/06/30 11:51:36;;;;;;;13.48;8.30;;;;;;;;;;5060385;28;20048;-74
2021/06/30 11:54:03;;;;;;;18.00;10.30;;;;;;;;;;5063625;28;20044;-74
2021/06/30 11:56:32;;;;;;;22.48;10.40;;;;;;;;;;5056037;28;20053;-74
2021/06/30 11:59:00;;;;;;;23.75;12.20;;;;;;;;;;5060011;28;20044;-74
2021/06/30 12:01:27;;;;;;;29.98;14.13;;;;;;;;;;5066426;28;20047;-74
2021/06/30 12:04:08;;;;;;;24.35;14.35;;;;;;;;;;5062478;28;20121;-74
2021/06/30 12:06:34;;;;;;;21.88;15.07;;;;;;;;;;5064584;28;20445;-74
2021/06/30 12:09:04;;;;;;;22.63;14.07;;;;;;;;;;5062492;28;20469;-74
2021/06/30 12:11:31;;;;;;;26.58;15.27;;;;;;;;;;5063009;28;20048;-74
2021/06/30 12:14:04;;;;;;;23.20;14.18;;;;;;;;;;5067496;28;20053;-74
2021/06/30 12:16:38;;;;;;;25.98;14.73;;;;;;;;;;5056146;28;20052;-74
2021/06/30 12:19:08;;;;;;;32.33;15.10;;;;;;;;;;5064864;28;20041;-74
2021/06/30 12:21:35;;;;;;;34.50;15.35;;;;;;;;;;5060043;28;20140;-74
2021/06/30 12:24:02;;;;;;;33.53;14.80;;;;;;;;;;5065609;28;20114;-74
2021/06/30 12:26:28;;;;;;;28.45;14.23;;;;;;;;;;5064708;28;20045;-74
2021/06/30 12:28:55;;;;;;;26.88;12.90;;;;;;;;;;5064695;28;20041;-74
2021/06/30 12:31:21;;;;;;;22.05;13.23;;;;;;;;;;5069636;28;20044;-73
2021/06/30 12:33:47;;;;;;;32.72;14.20;;;;;;;;;;5070647;28;20132;-74
2021/06/30 12:36:16;;;;;;;22.27;14.02;;;;;;;;;;5066671;28;20166;-74
2021/06/30 12:38:42;;;;;;;34.17;14.80;;;;;;;;;;5070068;28;20041;-74
2021/06/30 12:41:09;;;;;;;25.17;14.02;;;;;;;;;;5070565;28;20056;-74
2021/06/30 12:43:36;;;;;;;23.73;11.48;;;;;;;;;;5070002;28;20476;-74
2021/06/30 12:46:03;;;;;;;20.00;10.75;;;;;;;;;;5069598;28;20051;-74
2021/06/30 12:48:33;;;;;;;18.50;9.80;;;;;;;;;;5028847;28;1209032;-74
2021/06/30 12:51:11;;;;;;;20.25;12.15;;;;;;;;;;5053705;28;20040;-71
2021/06/30 12:53:40;;;;;;;26.15;12.43;;;;;;;;;;5071022;28;20044;-70
2021/06/30 12:56:07;;;;;;;25.67;12.07;;;;;;;;;;5070199;28;20040;-70
2021/06/30 12:58:43;;;;;;;26.00;11.48;;;;;;;;;;5070199;28;20102;-69
2021/06/30 13:01:12;;;;;;;21.05;10.93;;;;;;;;;;5062150;28;20037;-70
2021/06/30 13:03:44;;;;;;;19.85;9.88;;;;;;;;;;5069065;28;20052;-70
2021/06/30 13:06:13;;;;;;;20.75;10.93;;;;;;;;;;5068689;28;20044;-69
2021/06/30 13:08:40;;;;;;;23.02;10.77;;;;;;;;;;5070171;28;20053;-70
2021/06/30 13:11:09;;;;;;;25.38;11.80;;;;;;;;;;5070918;28;20044;-70
2021/06/30 13:13:36;;;;;;;26.42;12.63;;;;;;;;;;5070431;28;20441;-70
2021/06/30 13:16:10;;;;;;;24.80;12.23;;;;;;;;;;5070831;28;20048;-70
2021/06/30 13:18:41;;;;;;;26.98;13.07;;;;;;;;;;5070651;28;20044;-71
2021/06/30 13:21:08;;;;;;;34.05;12.65;;;;;;;;;;5070159;28;20598;-70
2021/06/30 13:23:37;;;;;;;26.58;13.00;;;;;;;;;;5052858;28;20040;-71
2021/06/30 13:26:15;;;;;;;28.88;12.50;;;;;;;;;;5070663;28;20045;-70
2021/06/30 13:29:06;;;;;;;24.30;12.32;;;;;;;;;;5069671;28;20519;-72
2021/06/30 13:34:18;;;;;;;18.98;9.18;;;;;;;;;;5069903;28;20037;-71
2021/06/30 13:36:45;;;;;;;22.75;9.13;;;;;;;;;;5069632;28;20075;-70
2021/06/30 13:39:11;;;;;;;27.15;11.68;;;;;;;;;;5069872;28;20040;-70
2021/06/30 13:41:38;;;;;;;32.78;10.75;;;;;;;;;;5069501;28;20074;-75
2021/06/30 13:44:04;;;;;;;24.10;9.52;;;;;;;;;;5061088;28;20113;-70
2021/06/30 13:46:30;;;;;;;23.05;9.98;;;;;;;;;;5066105;28;20053;-69
2021/06/30 13:48:58;;;;;;;20.85;9.18;;;;;;;;;;5072837;28;20500;-70
2021/06/30 13:51:24;;;;;;;24.60;8.85;;;;;;;;;;5068730;28;20090;-70
2021/06/30 13:53:52;;;;;;;21.65;8.77;;;;;;;;;;5079031;28;20052;-70
2021/06/30 13:56:18;;;;;;;22.70;9.13;;;;;;;;;;5074384;28;20120;-69
2021/06/30 13:58:44;;;;;;;23.23;8.40;;;;;;;;;;5068909;28;20856;-70
2021/06/30 14:01:11;;;;;;;16.60;7.75;;;;;;;;;;5069054;28;20102;-69
2021/06/30 14:03:38;;;;;;;19.60;8.10;;;;;;;;;;5069080;28;20127;-69
2021/06/30 14:06:05;;;;;;;23.67;8.00;;;;;;;;;;5078171;28;20056;-69
2021/06/30 14:08:32;;;;;;;24.95;9.38;;;;;;;;;;5068700;28;20258;-69
2021/06/30 14:10:59;;;;;;;20.75;8.73;;;;;;;;;;5069105;28;20369;-69
2021/06/30 14:13:26;;;;;;;24.60;8.63;;;;;;;;;;5076453;28;20441;-69
2021/06/30 14:15:52;;;;;;;28.50;8.50;;;;;;;;;;5071543;28;20079;-69
2021/06/30 14:18:20;;;;;;;19.63;8.00;;;;;;;;;;5079386;28;20070;-69
2021/06/30 14:20:47;;;;;;;19.77;7.63;;;;;;;;;;5068630;28;20044;-69
2021/06/30 14:23:14;;;;;;;22.88;8.50;;;;;;;;;;5068364;28;20062;-69
2021/06/30 14:25:41;;;;;;;21.33;7.93;;;;;;;;;;5053398;28;20126;-69
2021/06/30 14:28:09;;;;;;;21.00;8.55;;;;;;;;;;5074786;28;20055;-69